createdAt,value
2024-01-04T00:00:37.208Z,499.00
2024-01-04T00:01:37.248Z,497.00
2024-01-04T00:02:37.312Z,493.00
2024-01-04T00:03:37.378Z,491.00
2024-01-04T00:04:37.406Z,494.00
2024-01-04T00:05:37.495Z,495.00
2024-01-04T00:06:37.481Z,494.00
2024-01-04T00:07:37.531Z,492.00
2024-01-04T00:08:37.726Z,491.00
2024-01-04T00:09:37.653Z,491.00
2024-01-04T00:10:37.703Z,494.00
2024-01-04T00:11:37.809Z,492.00
2024-01-04T00:12:37.842Z,491.00
2024-01-04T00:13:37.870Z,492.00
2024-01-04T00:14:37.989Z,490.00
2024-01-04T00:15:38.002Z,490.00
2024-01-04T00:16:38.055Z,491.00
2024-01-04T00:17:38.206Z,492.00
2024-01-04T00:18:38.274Z,493.00
2024-01-04T00:19:38.232Z,492.00
2024-01-04T00:20:38.250Z,492.00
2024-01-04T00:21:38.322Z,492.00
2024-01-04T00:22:38.349Z,491.00
2024-01-04T00:23:38.446Z,492.00
2024-01-04T00:24:38.474Z,491.00
2024-01-04T00:25:38.473Z,492.00
2024-01-04T00:26:38.555Z,493.00
2024-01-04T00:27:38.588Z,493.00
2024-01-04T00:28:38.660Z,496.00
2024-01-04T00:29:38.749Z,498.00
2024-01-04T00:30:38.749Z,498.00
2024-01-04T00:31:38.776Z,497.00
2024-01-04T00:32:38.959Z,496.00
2024-01-04T00:33:39.011Z,499.00
2024-01-04T00:34:38.936Z,500.00
2024-01-04T00:35:39.062Z,499.00
2024-01-04T00:36:39.054Z,497.00
2024-01-04T00:37:39.158Z,496.00
2024-01-04T00:38:39.259Z,495.00
2024-01-04T00:39:39.284Z,494.00
2024-01-04T00:40:39.359Z,494.00
2024-01-04T00:41:39.420Z,494.00
2024-01-04T00:42:39.494Z,496.00
2024-01-04T00:43:39.520Z,495.00
2024-01-04T00:44:39.575Z,495.00
2024-01-04T00:45:39.589Z,495.00
2024-01-04T00:46:39.646Z,494.00
2024-01-04T00:47:39.782Z,493.00
2024-01-04T00:48:40.003Z,494.00
2024-01-04T00:49:39.877Z,494.00
2024-01-04T00:50:39.904Z,494.00
2024-01-04T00:51:39.936Z,493.00
2024-01-04T00:52:39.988Z,493.00
2024-01-04T00:53:40.015Z,492.00
2024-01-04T00:54:40.058Z,489.00
2024-01-04T00:55:40.126Z,488.00
2024-01-04T00:56:40.186Z,488.00
2024-01-04T00:57:40.234Z,489.00
2024-01-04T00:58:40.295Z,488.00
2024-01-04T00:59:40.346Z,489.00
2024-01-04T01:00:40.366Z,491.00
2024-01-04T01:01:40.357Z,489.00
2024-01-04T01:02:40.382Z,490.00
2024-01-04T01:03:40.442Z,490.00
2024-01-04T01:04:40.502Z,490.00
2024-01-04T01:05:40.633Z,491.00
2024-01-04T01:06:40.684Z,492.00
2024-01-04T01:07:40.714Z,490.00
2024-01-04T01:08:43.038Z,487.00
2024-01-04T01:09:40.737Z,488.00
2024-01-04T01:10:40.729Z,491.00
2024-01-04T01:11:40.760Z,492.00
2024-01-04T01:12:40.750Z,491.00
2024-01-04T01:13:40.740Z,492.00
2024-01-04T01:14:40.780Z,491.00
2024-01-04T01:15:40.786Z,492.00
2024-01-04T01:16:40.786Z,491.00
2024-01-04T01:17:40.864Z,489.00
2024-01-04T01:18:40.868Z,490.00
2024-01-04T01:19:40.846Z,489.00
2024-01-04T01:20:40.816Z,490.00
2024-01-04T01:21:40.724Z,490.00
2024-01-04T01:22:40.753Z,489.00
2024-01-04T01:23:40.881Z,490.00
2024-01-04T01:24:40.719Z,492.00
2024-01-04T01:25:40.783Z,492.00
2024-01-04T01:26:40.872Z,494.00
2024-01-04T01:27:40.756Z,495.00
2024-01-04T01:28:40.749Z,494.00
2024-01-04T01:29:40.815Z,493.00
2024-01-04T01:30:40.748Z,492.00
2024-01-04T01:31:40.770Z,493.00
2024-01-04T01:32:40.835Z,493.00
2024-01-04T01:33:40.824Z,491.00
2024-01-04T01:34:40.750Z,492.00
2024-01-04T01:35:40.836Z,487.00
2024-01-04T01:36:40.757Z,489.00
2024-01-04T01:37:40.754Z,489.00
2024-01-04T01:38:40.873Z,489.00
2024-01-04T01:39:40.944Z,491.00
2024-01-04T01:40:40.983Z,491.00
2024-01-04T01:41:41.085Z,494.00
2024-01-04T01:42:41.118Z,494.00
2024-01-04T01:43:41.093Z,494.00
2024-01-04T01:44:41.227Z,493.00
2024-01-04T01:45:41.221Z,490.00
2024-01-04T01:46:41.278Z,488.00
2024-01-04T01:47:41.446Z,487.00
2024-01-04T01:48:41.556Z,486.00
2024-01-04T01:49:41.526Z,483.00
2024-01-04T01:50:41.550Z,484.00
2024-01-04T01:51:41.578Z,484.00
2024-01-04T01:52:41.641Z,485.00
2024-01-04T01:53:41.702Z,483.00
2024-01-04T01:54:41.740Z,483.00
2024-01-04T01:55:41.800Z,483.00
2024-01-04T01:56:41.927Z,483.00
2024-01-04T01:57:41.960Z,481.00
2024-01-04T01:58:42.025Z,480.00
2024-01-04T01:59:42.102Z,478.00
2024-01-04T02:00:42.237Z,478.00
2024-01-04T02:01:42.196Z,478.00
2024-01-04T02:02:42.295Z,478.00
2024-01-04T02:03:42.409Z,476.00
2024-01-04T02:04:42.419Z,476.00
2024-01-04T02:05:42.800Z,478.00
2024-01-04T02:06:42.627Z,480.00
2024-01-04T02:07:42.609Z,480.00
2024-01-04T02:08:42.689Z,478.00
2024-01-04T02:09:42.749Z,476.00
2024-01-04T02:10:42.819Z,475.00
2024-01-04T02:11:42.864Z,476.00
2024-01-04T02:12:42.855Z,476.00
2024-01-04T02:13:42.888Z,476.00
2024-01-04T02:14:42.980Z,476.00
2024-01-04T02:15:43.003Z,477.00
2024-01-04T02:16:43.134Z,479.00
2024-01-04T02:17:43.176Z,477.00
2024-01-04T02:18:43.250Z,477.00
2024-01-04T02:19:43.284Z,477.00
2024-01-04T02:20:43.389Z,475.00
2024-01-04T02:21:43.415Z,473.00
2024-01-04T02:22:43.438Z,470.00
2024-01-04T02:23:43.527Z,468.00
2024-01-04T02:24:43.603Z,467.00
2024-01-04T02:25:43.676Z,467.00
2024-01-04T02:26:43.712Z,467.00
2024-01-04T02:27:43.770Z,467.00
2024-01-04T02:28:43.818Z,468.00
2024-01-04T02:29:43.934Z,470.00
2024-01-04T02:30:44.022Z,469.00
2024-01-04T02:31:44.040Z,468.00
2024-01-04T02:32:44.223Z,469.00
2024-01-04T02:33:44.335Z,470.00
2024-01-04T02:34:44.281Z,469.00
2024-01-04T02:35:44.375Z,468.00
2024-01-04T02:36:44.409Z,468.00
2024-01-04T02:37:44.456Z,471.00
2024-01-04T02:38:44.487Z,470.00
2024-01-04T02:39:44.518Z,469.00
2024-01-04T02:40:44.525Z,471.00
2024-01-04T02:41:44.598Z,471.00
2024-01-04T02:42:44.650Z,472.00
2024-01-04T02:43:44.678Z,471.00
2024-01-04T02:44:44.783Z,471.00
2024-01-04T02:45:44.807Z,470.00
2024-01-04T02:46:44.892Z,469.00
2024-01-04T02:47:45.052Z,472.00
2024-01-04T02:48:45.241Z,474.00
2024-01-04T02:49:45.229Z,473.00
2024-01-04T02:50:45.222Z,475.00
2024-01-04T02:51:45.218Z,475.00
2024-01-04T02:52:45.306Z,477.00
2024-01-04T02:53:45.366Z,477.00
2024-01-04T02:54:45.392Z,476.00
2024-01-04T02:55:45.469Z,475.00
2024-01-04T02:56:45.594Z,475.00
2024-01-04T02:57:45.652Z,474.00
2024-01-04T02:58:45.717Z,477.00
2024-01-04T02:59:45.767Z,477.00
2024-01-04T03:00:45.821Z,476.00
2024-01-04T03:01:45.848Z,475.00
2024-01-04T03:02:45.915Z,475.00
2024-01-04T03:03:46.104Z,475.00
2024-01-04T03:04:46.190Z,476.00
2024-01-04T03:05:46.211Z,475.00
2024-01-04T03:06:46.220Z,476.00
2024-01-04T03:07:46.279Z,477.00
2024-01-04T03:08:46.331Z,477.00
2024-01-04T03:09:46.374Z,477.00
2024-01-04T03:10:46.501Z,479.00
2024-01-04T03:11:46.546Z,478.00
2024-01-04T03:12:46.592Z,478.00
2024-01-04T03:13:46.684Z,478.00
2024-01-04T03:14:46.728Z,477.00
2024-01-04T03:15:46.842Z,476.00
2024-01-04T03:16:46.812Z,475.00
2024-01-04T03:17:47.075Z,475.00
2024-01-04T03:18:47.181Z,476.00
2024-01-04T03:19:47.153Z,476.00
2024-01-04T03:20:47.154Z,476.00
2024-01-04T03:21:47.210Z,477.00
2024-01-04T03:22:47.238Z,475.00
2024-01-04T03:23:47.303Z,472.00
2024-01-04T03:24:47.357Z,470.00
2024-01-04T03:25:47.448Z,471.00
2024-01-04T03:26:47.550Z,472.00
2024-01-04T03:27:47.522Z,471.00
2024-01-04T03:28:47.540Z,471.00
2024-01-04T03:29:47.585Z,471.00
2024-01-04T03:30:47.580Z,470.00
2024-01-04T03:31:47.577Z,473.00
2024-01-04T03:32:47.716Z,474.00
2024-01-04T03:33:47.856Z,475.00
2024-01-04T03:34:47.792Z,473.00
2024-01-04T03:35:47.861Z,473.00
2024-01-04T03:36:47.896Z,472.00
2024-01-04T03:37:48.014Z,471.00
2024-01-04T03:38:48.033Z,470.00
2024-01-04T03:39:48.124Z,469.00
2024-01-04T03:40:48.121Z,468.00
2024-01-04T03:41:48.298Z,469.00
2024-01-04T03:42:48.372Z,469.00
2024-01-04T03:43:48.319Z,468.00
2024-01-04T03:44:48.475Z,467.00
2024-01-04T03:45:48.583Z,467.00
2024-01-04T03:46:48.527Z,467.00
2024-01-04T03:47:48.698Z,469.00
2024-01-04T03:48:48.778Z,468.00
2024-01-04T03:49:48.831Z,468.00
2024-01-04T03:50:48.829Z,467.00
2024-01-04T03:51:48.835Z,468.00
2024-01-04T03:52:48.909Z,468.00
2024-01-04T03:53:48.958Z,466.00
2024-01-04T03:54:48.870Z,466.00
2024-01-04T03:55:48.910Z,466.00
2024-01-04T03:56:48.977Z,467.00
2024-01-04T03:57:48.999Z,466.00
2024-01-04T03:58:49.055Z,467.00
2024-01-04T03:59:49.114Z,468.00
2024-01-04T04:00:49.044Z,467.00
2024-01-04T04:01:49.063Z,466.00
2024-01-04T04:02:49.152Z,467.00
2024-01-04T04:03:49.152Z,465.00
2024-01-04T04:04:49.075Z,466.00
2024-01-04T04:05:49.248Z,468.00
2024-01-04T04:06:49.233Z,468.00
2024-01-04T04:07:49.102Z,469.00
2024-01-04T04:08:49.274Z,471.00
2024-01-04T04:09:49.365Z,473.00
2024-01-04T04:10:49.268Z,471.00
2024-01-04T04:11:49.418Z,472.00
2024-01-04T04:12:49.479Z,473.00
2024-01-04T04:13:49.529Z,471.00
2024-01-04T04:14:49.639Z,471.00
2024-01-04T04:15:49.601Z,471.00
2024-01-04T04:16:49.702Z,472.00
2024-01-04T04:17:49.719Z,472.00
2024-01-04T04:18:49.882Z,472.00
2024-01-04T04:19:49.807Z,472.00
2024-01-04T04:20:49.848Z,474.00
2024-01-04T04:21:49.893Z,473.00
2024-01-04T04:22:50.005Z,471.00
2024-01-04T04:23:50.081Z,474.00
2024-01-04T04:24:57.279Z,486.00
2024-01-04T04:25:57.270Z,478.00
2024-01-04T04:26:57.323Z,480.00
2024-01-04T04:27:57.275Z,481.00
2024-01-04T04:28:57.321Z,481.00
2024-01-04T04:29:57.370Z,480.00
2024-01-04T04:30:57.330Z,479.00
2024-01-04T04:32:04.723Z,489.00
2024-01-04T04:33:04.664Z,482.00
2024-01-04T04:34:04.720Z,482.00
2024-01-04T04:35:04.552Z,480.00
2024-01-04T04:36:04.626Z,481.00
2024-01-04T04:37:04.597Z,482.00
2024-01-04T04:38:04.598Z,483.00
2024-01-04T04:39:04.584Z,482.00
2024-01-04T04:40:04.562Z,480.00
2024-01-04T04:41:04.578Z,481.00
2024-01-04T04:42:04.639Z,479.00
2024-01-04T04:43:04.588Z,477.00
2024-01-04T04:44:04.646Z,476.00
2024-01-04T04:45:04.713Z,474.00
2024-01-04T04:46:04.578Z,474.00
2024-01-04T04:47:04.569Z,475.00
2024-01-04T04:48:04.721Z,475.00
2024-01-04T04:49:04.733Z,475.00
2024-01-04T04:50:04.592Z,476.00
2024-01-04T04:51:04.606Z,475.00
2024-01-04T04:52:04.597Z,474.00
2024-01-04T04:53:04.607Z,472.00
2024-01-04T04:54:04.726Z,472.00
2024-01-04T04:55:07.143Z,471.00
2024-01-04T04:56:04.681Z,472.00
2024-01-04T04:57:04.691Z,472.00
2024-01-04T04:58:04.687Z,471.00
2024-01-04T04:59:04.691Z,470.00
2024-01-04T05:00:04.754Z,470.00
2024-01-04T05:01:05.146Z,472.00
2024-01-04T05:02:04.659Z,472.00
2024-01-04T05:03:04.767Z,472.00
2024-01-04T05:04:04.726Z,473.00
2024-01-04T05:05:04.681Z,476.00
2024-01-04T05:06:04.766Z,477.00
2024-01-04T05:07:04.685Z,473.00
2024-01-04T05:08:04.732Z,474.00
2024-01-04T05:09:04.742Z,476.00
2024-01-04T05:10:04.708Z,476.00
2024-01-04T05:11:04.692Z,477.00
2024-01-04T05:12:04.717Z,475.00
2024-01-04T05:13:04.696Z,474.00
2024-01-04T05:14:04.766Z,471.00
2024-01-04T05:15:04.752Z,471.00
2024-01-04T05:16:05.681Z,472.00
2024-01-04T05:17:04.729Z,471.00
2024-01-04T05:18:04.853Z,471.00
2024-01-04T05:19:04.799Z,468.00
2024-01-04T05:20:04.699Z,469.00
2024-01-04T05:21:04.757Z,470.00
2024-01-04T05:22:04.806Z,470.00
2024-01-04T05:23:04.713Z,470.00
2024-01-04T05:24:04.772Z,473.00
2024-01-04T05:25:04.758Z,474.00
2024-01-04T05:26:04.688Z,474.00
2024-01-04T05:27:04.742Z,473.00
2024-01-04T05:28:04.695Z,474.00
2024-01-04T05:29:04.760Z,474.00
2024-01-04T05:30:04.897Z,474.00
2024-01-04T05:31:04.825Z,475.00
2024-01-04T05:32:04.776Z,474.00
2024-01-04T05:33:04.984Z,475.00
2024-01-04T05:34:05.089Z,477.00
2024-01-04T05:35:04.850Z,478.00
2024-01-04T05:36:04.923Z,478.00
2024-01-04T05:37:04.905Z,480.00
2024-01-04T05:38:04.914Z,480.00
2024-01-04T05:39:05.039Z,481.00
2024-01-04T05:40:04.951Z,480.00
2024-01-04T05:41:04.993Z,480.00
2024-01-04T05:42:05.043Z,480.00
2024-01-04T05:43:05.047Z,481.00
2024-01-04T05:44:05.012Z,480.00
2024-01-04T05:45:05.073Z,481.00
2024-01-04T05:46:05.091Z,481.00
2024-01-04T05:47:05.072Z,482.00
2024-01-04T05:48:05.267Z,481.00
2024-01-04T05:49:05.276Z,480.00
2024-01-04T05:50:05.266Z,482.00
2024-01-04T05:51:05.227Z,482.00
2024-01-04T05:52:05.244Z,481.00
2024-01-04T05:53:05.271Z,483.00
2024-01-04T05:54:05.297Z,482.00
2024-01-04T05:55:05.288Z,480.00
2024-01-04T05:56:05.291Z,480.00
2024-01-04T05:57:05.368Z,479.00
2024-01-04T05:58:05.380Z,478.00
2024-01-04T05:59:05.361Z,479.00
2024-01-04T06:00:05.478Z,481.00
2024-01-04T06:01:05.498Z,481.00
2024-01-04T06:02:05.443Z,479.00
2024-01-04T06:03:05.598Z,479.00
2024-01-04T06:04:05.671Z,480.00
2024-01-04T06:05:05.584Z,480.00
2024-01-04T06:06:05.579Z,481.00
2024-01-04T06:07:05.579Z,480.00
2024-01-04T06:08:05.534Z,481.00
2024-01-04T06:09:05.652Z,479.00
2024-01-04T06:10:05.600Z,480.00
2024-01-04T06:11:05.600Z,481.00
2024-01-04T06:12:05.627Z,478.00
2024-01-04T06:13:05.616Z,478.00
2024-01-04T06:14:05.776Z,479.00
2024-01-04T06:15:05.817Z,478.00
2024-01-04T06:16:05.840Z,477.00
2024-01-04T06:17:05.850Z,475.00
2024-01-04T06:18:06.122Z,474.00
2024-01-04T06:19:06.076Z,473.00
2024-01-04T06:20:06.047Z,473.00
2024-01-04T06:21:06.198Z,473.00
2024-01-04T06:22:06.258Z,472.00
2024-01-04T06:23:06.253Z,474.00
2024-01-04T06:24:06.358Z,476.00
2024-01-04T06:25:06.357Z,477.00
2024-01-04T06:26:06.428Z,478.00
2024-01-04T06:27:06.494Z,477.00
2024-01-04T06:28:06.733Z,479.00
2024-01-04T06:29:06.500Z,475.00
2024-01-04T06:30:06.706Z,476.00
2024-01-04T06:31:06.625Z,474.00
2024-01-04T06:32:06.663Z,471.00
2024-01-04T06:33:06.814Z,471.00
2024-01-04T06:34:06.775Z,469.00
2024-01-04T06:35:06.806Z,470.00
2024-01-04T06:36:07.068Z,469.00
2024-01-04T06:37:06.964Z,470.00
2024-01-04T06:38:06.946Z,470.00
2024-01-04T06:39:07.197Z,471.00
2024-01-04T06:40:07.238Z,472.00
2024-01-04T06:41:07.129Z,471.00
2024-01-04T06:42:07.384Z,474.00
2024-01-04T06:43:07.249Z,478.00
2024-01-04T06:44:07.264Z,478.00
2024-01-04T06:45:07.357Z,477.00
2024-01-04T06:46:08.285Z,480.00
2024-01-04T06:47:07.385Z,480.00
2024-01-04T06:48:07.489Z,482.00
2024-01-04T06:49:07.651Z,485.00
2024-01-04T06:50:15.149Z,486.00
2024-01-04T06:51:08.687Z,487.00
2024-01-04T06:52:07.533Z,486.00
2024-01-04T06:53:07.539Z,485.00
2024-01-04T06:54:07.592Z,484.00
2024-01-04T06:55:07.536Z,485.00
2024-01-04T06:56:07.583Z,485.00
2024-01-04T06:57:07.919Z,481.00
2024-01-04T06:58:07.518Z,478.00
2024-01-04T06:59:07.525Z,477.00
2024-01-04T07:00:07.614Z,477.00
2024-01-04T07:01:07.742Z,477.00
2024-01-04T07:02:07.731Z,476.00
2024-01-04T07:03:07.968Z,476.00
2024-01-04T07:04:07.778Z,475.00
2024-01-04T07:05:07.949Z,476.00
2024-01-04T07:06:07.885Z,473.00
2024-01-04T07:07:07.782Z,474.00
2024-01-04T07:08:07.827Z,475.00
2024-01-04T07:09:07.892Z,473.00
2024-01-04T07:10:07.919Z,472.00
2024-01-04T07:11:07.920Z,471.00
2024-01-04T07:12:08.783Z,474.00
2024-01-04T07:13:08.114Z,474.00
2024-01-04T07:14:08.217Z,474.00
2024-01-04T07:15:08.248Z,473.00
2024-01-04T07:16:08.212Z,476.00
2024-01-04T07:17:08.278Z,478.00
2024-01-04T07:18:08.501Z,480.00
2024-01-04T07:19:08.525Z,479.00
2024-01-04T07:20:08.392Z,479.00
2024-01-04T07:21:08.487Z,478.00
2024-01-04T07:22:08.505Z,476.00
2024-01-04T07:23:08.559Z,476.00
2024-01-04T07:24:08.696Z,477.00
2024-01-04T07:25:08.689Z,478.00
2024-01-04T07:26:08.709Z,475.00
2024-01-04T07:27:08.803Z,473.00
2024-01-04T07:28:08.763Z,474.00
2024-01-04T07:29:08.827Z,477.00
2024-01-04T07:30:08.963Z,476.00
2024-01-04T07:31:08.967Z,476.00
2024-01-04T07:32:08.929Z,475.00
2024-01-04T07:33:09.064Z,476.00
2024-01-04T07:34:09.202Z,476.00
2024-01-04T07:35:16.205Z,477.00
2024-01-04T07:36:10.125Z,476.00
2024-01-04T07:37:09.092Z,474.00
2024-01-04T07:38:09.056Z,473.00
2024-01-04T07:39:09.149Z,474.00
2024-01-04T07:40:09.150Z,474.00
2024-01-04T07:41:09.256Z,474.00
2024-01-04T07:42:09.089Z,475.00
2024-01-04T07:43:09.055Z,477.00
2024-01-04T07:44:09.048Z,476.00
2024-01-04T07:45:09.170Z,476.00
2024-01-04T07:46:09.245Z,478.00
2024-01-04T07:47:09.176Z,480.00
2024-01-04T07:48:09.438Z,482.00
2024-01-04T07:49:09.565Z,482.00
2024-01-04T07:50:09.441Z,481.00
2024-01-04T07:51:09.505Z,480.00
2024-01-04T07:52:09.536Z,478.00
2024-01-04T07:53:09.607Z,478.00
2024-01-04T07:54:09.714Z,477.00
2024-01-04T07:55:09.755Z,476.00
2024-01-04T07:56:10.279Z,477.00
2024-01-04T07:57:09.944Z,478.00
2024-01-04T07:58:09.960Z,478.00
2024-01-04T07:59:10.013Z,478.00
2024-01-04T08:00:10.287Z,481.00
2024-01-04T08:01:10.162Z,479.00
2024-01-04T08:02:10.082Z,478.00
2024-01-04T08:03:10.218Z,477.00
2024-01-04T08:04:10.268Z,477.00
2024-01-04T08:05:10.317Z,477.00
2024-01-04T08:06:10.464Z,475.00
2024-01-04T08:07:10.538Z,477.00
2024-01-04T08:08:10.467Z,478.00
2024-01-04T08:09:10.648Z,474.00
2024-01-04T08:10:10.740Z,474.00
2024-01-04T08:11:10.682Z,472.00
2024-01-04T08:12:10.857Z,468.00
2024-01-04T08:13:10.821Z,467.00
2024-01-04T08:14:10.881Z,469.00
2024-01-04T08:15:11.038Z,470.00
2024-01-04T08:16:11.036Z,469.00
2024-01-04T08:17:11.128Z,468.00
2024-01-04T08:18:11.260Z,468.00
2024-01-04T08:19:11.536Z,469.00
2024-01-04T08:20:11.441Z,470.00
2024-01-04T08:21:11.426Z,467.00
2024-01-04T08:22:11.435Z,465.00
2024-01-04T08:23:11.485Z,466.00
2024-01-04T08:24:11.577Z,469.00
2024-01-04T08:25:11.650Z,472.00
2024-01-04T08:26:11.688Z,470.00
2024-01-04T08:27:12.473Z,473.00
2024-01-04T08:28:11.860Z,473.00
2024-01-04T08:29:11.996Z,473.00
2024-01-04T08:30:12.298Z,471.00
2024-01-04T08:31:12.071Z,470.00
2024-01-04T08:32:12.129Z,471.00
2024-01-04T08:33:12.369Z,471.00
2024-01-04T08:34:12.304Z,469.00
2024-01-04T08:35:12.347Z,467.00
2024-01-04T08:36:13.451Z,468.00
2024-01-04T08:37:12.400Z,470.00
2024-01-04T08:38:12.519Z,473.00
2024-01-04T08:39:12.561Z,473.00
2024-01-04T08:40:12.605Z,469.00
2024-01-04T08:41:12.608Z,471.00
2024-01-04T08:42:13.228Z,468.00
2024-01-04T08:43:12.708Z,467.00
2024-01-04T08:44:12.681Z,469.00
2024-01-04T08:45:12.755Z,468.00
2024-01-04T08:46:12.663Z,468.00
2024-01-04T08:47:12.684Z,466.00
2024-01-04T08:48:12.893Z,465.00
2024-01-04T08:49:13.119Z,465.00
2024-01-04T08:50:12.857Z,460.00
2024-01-04T08:51:12.924Z,462.00
2024-01-04T08:52:12.991Z,461.00
2024-01-04T08:53:13.015Z,461.00
2024-01-04T08:54:13.159Z,460.00
2024-01-04T08:55:13.105Z,461.00
2024-01-04T08:56:13.215Z,461.00
2024-01-04T08:57:13.317Z,461.00
2024-01-04T08:58:13.304Z,464.00
2024-01-04T08:59:13.432Z,465.00
2024-01-04T09:00:13.529Z,467.00
2024-01-04T09:01:13.719Z,465.00
2024-01-04T09:02:13.589Z,464.00
2024-01-04T09:03:13.788Z,464.00
2024-01-04T09:04:13.725Z,463.00
2024-01-04T09:05:13.788Z,464.00
2024-01-04T09:06:13.873Z,461.00
2024-01-04T09:07:13.999Z,461.00
2024-01-04T09:08:14.118Z,462.00
2024-01-04T09:09:14.100Z,464.00
2024-01-04T09:10:14.112Z,464.00
2024-01-04T09:11:14.165Z,464.00
2024-01-04T09:12:14.238Z,464.00
2024-01-04T09:13:14.267Z,465.00
2024-01-04T09:14:14.390Z,463.00
2024-01-04T09:15:14.438Z,461.00
2024-01-04T09:16:14.599Z,462.00
2024-01-04T09:17:14.604Z,461.00
2024-01-04T09:18:14.991Z,462.00
2024-01-04T09:19:14.810Z,464.00
2024-01-04T09:20:14.716Z,464.00
2024-01-04T09:21:14.797Z,463.00
2024-01-04T09:22:14.758Z,463.00
2024-01-04T09:23:14.834Z,464.00
2024-01-04T09:24:14.978Z,463.00
2024-01-04T09:25:14.952Z,464.00
2024-01-04T09:26:15.053Z,466.00
2024-01-04T09:27:15.154Z,468.00
2024-01-04T09:28:15.172Z,470.00
2024-01-04T09:29:15.296Z,471.00
2024-01-04T09:30:15.389Z,469.00
2024-01-04T09:31:15.388Z,470.00
2024-01-04T09:32:15.401Z,471.00
2024-01-04T09:33:15.587Z,468.00
2024-01-04T09:34:15.676Z,470.00
2024-01-04T09:35:15.634Z,468.00
2024-01-04T09:36:15.650Z,469.00
2024-01-04T09:37:15.627Z,469.00
2024-01-04T09:38:15.713Z,469.00
2024-01-04T09:39:15.775Z,466.00
2024-01-04T09:40:15.750Z,466.00
2024-01-04T09:41:15.807Z,466.00
2024-01-04T09:42:15.880Z,467.00
2024-01-04T09:43:15.856Z,468.00
2024-01-04T09:44:15.925Z,468.00
2024-01-04T09:45:16.018Z,467.00
2024-01-04T09:46:16.043Z,469.00
2024-01-04T09:47:16.137Z,468.00
2024-01-04T09:48:24.066Z,468.00
2024-01-04T09:49:18.280Z,467.00
2024-01-04T09:50:16.297Z,468.00
2024-01-04T09:51:16.189Z,467.00
2024-01-04T09:52:16.137Z,466.00
2024-01-04T09:53:16.146Z,464.00
2024-01-04T09:54:16.298Z,466.00
2024-01-04T09:55:16.174Z,465.00
2024-01-04T09:56:16.171Z,465.00
2024-01-04T09:57:16.114Z,465.00
2024-01-04T09:58:16.118Z,467.00
2024-01-04T09:59:16.126Z,467.00
2024-01-04T10:00:16.151Z,467.00
2024-01-04T10:01:16.117Z,467.00
2024-01-04T10:02:16.118Z,468.00
2024-01-04T10:03:16.250Z,468.00
2024-01-04T10:04:16.356Z,469.00
2024-01-04T10:05:16.193Z,469.00
2024-01-04T10:06:16.223Z,469.00
2024-01-04T10:07:16.147Z,470.00
2024-01-04T10:08:16.172Z,470.00
2024-01-04T10:09:16.180Z,469.00
2024-01-04T10:10:16.308Z,471.00
2024-01-04T10:11:16.181Z,470.00
2024-01-04T10:12:16.211Z,470.00
2024-01-04T10:13:16.281Z,469.00
2024-01-04T10:14:16.181Z,468.00
2024-01-04T10:15:16.289Z,469.00
2024-01-04T10:16:16.165Z,469.00
2024-01-04T10:17:16.160Z,467.00
2024-01-04T10:18:16.247Z,466.00
2024-01-04T10:19:16.385Z,464.00
2024-01-04T10:20:16.166Z,465.00
2024-01-04T10:21:16.229Z,465.00
2024-01-04T10:22:16.161Z,466.00
2024-01-04T10:23:16.130Z,466.00
2024-01-04T10:24:16.444Z,467.00
2024-01-04T10:25:16.282Z,466.00
2024-01-04T10:26:16.177Z,466.00
2024-01-04T10:27:16.222Z,462.00
2024-01-04T10:28:16.162Z,464.00
2024-01-04T10:29:16.202Z,461.00
2024-01-04T10:30:16.337Z,461.00
2024-01-04T10:31:16.175Z,460.00
2024-01-04T10:32:16.217Z,461.00
2024-01-04T10:33:16.287Z,461.00
2024-01-04T10:34:16.260Z,460.00
2024-01-04T10:35:16.192Z,457.00
2024-01-04T10:36:16.254Z,460.00
2024-01-04T10:37:16.197Z,461.00
2024-01-04T10:38:16.179Z,459.00
2024-01-04T10:39:16.224Z,458.00
2024-01-04T10:40:16.201Z,458.00
2024-01-04T10:41:16.250Z,457.00
2024-01-04T10:42:16.347Z,458.00
2024-01-04T10:43:16.297Z,460.00
2024-01-04T10:44:16.350Z,460.00
2024-01-04T10:45:16.469Z,461.00
2024-01-04T10:46:16.398Z,459.00
2024-01-04T10:47:16.474Z,461.00
2024-01-04T10:48:16.604Z,465.00
2024-01-04T10:49:16.682Z,466.00
2024-01-04T10:50:16.525Z,467.00
2024-01-04T10:51:16.657Z,467.00
2024-01-04T10:52:16.751Z,466.00
2024-01-04T10:53:16.661Z,466.00
2024-01-04T10:54:16.687Z,466.00
2024-01-04T10:55:16.668Z,466.00
2024-01-04T10:56:16.735Z,463.00
2024-01-04T10:57:16.745Z,465.00
2024-01-04T10:58:16.783Z,462.00
2024-01-04T10:59:16.812Z,461.00
2024-01-04T11:00:16.834Z,460.00
2024-01-04T11:01:16.895Z,461.00
2024-01-04T11:02:16.874Z,462.00
2024-01-04T11:03:16.938Z,463.00
2024-01-04T11:04:16.903Z,464.00
2024-01-04T11:05:17.010Z,464.00
2024-01-04T11:06:16.925Z,466.00
2024-01-04T11:07:16.950Z,466.00
2024-01-04T11:08:16.967Z,464.00
2024-01-04T11:09:17.022Z,465.00
2024-01-04T11:10:17.021Z,464.00
2024-01-04T11:11:17.017Z,464.00
2024-01-04T11:12:17.246Z,464.00
2024-01-04T11:13:17.107Z,460.00
2024-01-04T11:14:17.117Z,459.00
2024-01-04T11:15:17.274Z,457.00
2024-01-04T11:16:17.153Z,457.00
2024-01-04T11:17:17.165Z,457.00
2024-01-04T11:18:17.345Z,458.00
2024-01-04T11:19:17.315Z,459.00
2024-01-04T11:20:17.287Z,461.00
2024-01-04T11:21:17.280Z,461.00
2024-01-04T11:22:17.326Z,461.00
2024-01-04T11:23:17.394Z,459.00
2024-01-04T11:24:17.505Z,457.00
2024-01-04T11:25:17.423Z,458.00
2024-01-04T11:26:17.432Z,461.00
2024-01-04T11:27:17.514Z,461.00
2024-01-04T11:28:25.694Z,461.00
2024-01-04T11:29:18.533Z,459.00
2024-01-04T11:30:17.649Z,459.00
2024-01-04T11:31:17.656Z,459.00
2024-01-04T11:32:17.579Z,460.00
2024-01-04T11:33:17.649Z,461.00
2024-01-04T11:34:17.865Z,461.00
2024-01-04T11:35:17.547Z,459.00
2024-01-04T11:36:17.623Z,459.00
2024-01-04T11:37:17.561Z,459.00
2024-01-04T11:38:17.566Z,457.00
2024-01-04T11:39:17.626Z,455.00
2024-01-04T11:40:17.528Z,456.00
2024-01-04T11:41:17.543Z,454.00
2024-01-04T11:42:17.561Z,455.00
2024-01-04T11:43:17.521Z,455.00
2024-01-04T11:44:17.540Z,455.00
2024-01-04T11:45:17.793Z,455.00
2024-01-04T11:46:17.557Z,457.00
2024-01-04T11:47:17.549Z,455.00
2024-01-04T11:48:17.699Z,451.00
2024-01-04T11:49:17.766Z,451.00
2024-01-04T11:50:21.021Z,453.00
2024-01-04T11:51:17.956Z,457.00
2024-01-04T11:52:17.568Z,456.00
2024-01-04T11:53:17.568Z,458.00
2024-01-04T11:54:17.604Z,460.00
2024-01-04T11:55:17.580Z,460.00
2024-01-04T11:56:17.577Z,461.00
2024-01-04T11:57:17.576Z,459.00
2024-01-04T11:58:17.611Z,459.00
2024-01-04T11:59:17.547Z,458.00
2024-01-04T12:00:17.646Z,460.00
2024-01-04T12:01:17.905Z,460.00
2024-01-04T12:02:17.580Z,458.00
2024-01-04T12:03:17.671Z,458.00
2024-01-04T12:04:18.210Z,457.00
2024-01-04T12:05:17.681Z,456.00
2024-01-04T12:06:17.571Z,458.00
2024-01-04T12:07:17.588Z,459.00
2024-01-04T12:08:17.561Z,457.00
2024-01-04T12:09:18.624Z,457.00
2024-01-04T12:10:17.595Z,458.00
2024-01-04T12:11:19.151Z,457.00
2024-01-04T12:12:17.665Z,459.00
2024-01-04T12:13:17.555Z,459.00
2024-01-04T12:14:17.572Z,459.00
2024-01-04T12:15:17.662Z,460.00
2024-01-04T12:16:17.628Z,461.00
2024-01-04T12:17:17.567Z,459.00
2024-01-04T12:18:17.662Z,459.00
2024-01-04T12:19:18.052Z,459.00
2024-01-04T12:20:17.588Z,459.00
2024-01-04T12:21:18.748Z,462.00
2024-01-04T12:22:17.600Z,464.00
2024-01-04T12:23:17.618Z,464.00
2024-01-04T12:24:17.672Z,465.00
2024-01-04T12:25:19.734Z,467.00
2024-01-04T12:26:17.612Z,468.00
2024-01-04T12:27:17.597Z,466.00
2024-01-04T12:28:17.621Z,467.00
2024-01-04T12:29:17.640Z,466.00